createdAt,value
2023-04-20T00:01:13.346Z,4.55
2023-04-20T00:03:42.728Z,6.70
2023-04-20T00:06:10.412Z,5.38
2023-04-20T00:08:38.182Z,7.45
2023-04-20T00:11:05.979Z,5.78
2023-04-20T00:13:33.884Z,4.40
2023-04-20T00:16:03.168Z,5.35
2023-04-20T00:18:31.104Z,5.47
2023-04-20T00:21:00.238Z,8.18
2023-04-20T00:23:27.947Z,5.50
2023-04-20T00:25:55.818Z,4.95
2023-04-20T00:28:23.491Z,3.85
2023-04-20T00:30:51.494Z,5.85
2023-04-20T00:33:19.287Z,7.30
2023-04-20T00:35:46.892Z,5.57
2023-04-20T00:38:16.228Z,7.85
2023-04-20T00:40:44.127Z,5.68
2023-04-20T00:43:12.342Z,4.35
2023-04-20T00:45:40.327Z,7.32
2023-04-20T00:48:08.457Z,6.28
2023-04-20T00:50:36.462Z,6.85
2023-04-20T00:53:09.351Z,6.00
2023-04-20T00:55:39.941Z,8.45
2023-04-20T00:58:08.061Z,5.05
2023-04-20T01:00:36.302Z,6.50
2023-04-20T01:03:04.218Z,4.60
2023-04-20T01:05:32.081Z,7.28
2023-04-20T01:07:59.793Z,7.28
2023-04-20T01:10:30.875Z,7.80
2023-04-20T01:13:00.131Z,5.47
2023-04-20T01:15:28.355Z,6.88
2023-04-20T01:17:57.897Z,6.10
2023-04-20T01:20:26.091Z,5.35
2023-04-20T01:22:56.004Z,8.40
2023-04-20T01:25:23.830Z,6.60
2023-04-20T01:27:51.579Z,5.88
2023-04-20T01:30:19.508Z,4.65
2023-04-20T01:32:47.508Z,6.82
2023-04-20T01:35:16.916Z,5.57
2023-04-20T01:37:46.152Z,4.88
2023-04-20T01:40:16.856Z,10.23
2023-04-20T01:42:47.380Z,7.30
2023-04-20T01:45:16.318Z,5.70
2023-04-20T01:47:44.474Z,6.68
2023-04-20T01:50:12.475Z,5.28
2023-04-20T01:52:40.213Z,7.28
2023-04-20T01:55:08.853Z,6.22
2023-04-20T01:57:38.870Z,6.80
2023-04-20T02:00:08.493Z,6.55
2023-04-20T02:02:41.964Z,8.27
2023-04-20T02:05:11.116Z,6.95
2023-04-20T02:07:39.032Z,6.25
2023-04-20T02:10:08.596Z,7.00
2023-04-20T02:12:38.788Z,9.45
2023-04-20T02:15:09.262Z,9.82
2023-04-20T02:17:38.397Z,5.57
2023-04-20T02:20:07.929Z,7.13
2023-04-20T02:22:36.211Z,6.40
2023-04-20T02:25:08.944Z,8.02
2023-04-20T02:27:40.066Z,13.35
2023-04-20T02:30:09.352Z,6.68
2023-04-20T02:32:37.700Z,8.25
2023-04-20T02:35:06.436Z,8.07
2023-04-20T02:37:34.459Z,8.95
2023-04-20T02:40:02.310Z,6.55
2023-04-20T02:42:30.653Z,10.35
2023-04-20T02:45:01.999Z,8.02
2023-04-20T02:47:29.791Z,7.28
2023-04-20T02:49:57.938Z,8.57
2023-04-20T02:52:26.056Z,6.07
2023-04-20T02:54:57.035Z,6.30
2023-04-20T02:57:26.265Z,5.75
2023-04-20T02:59:56.574Z,8.48
2023-04-20T03:02:39.948Z,8.02
2023-04-20T03:05:09.557Z,8.60
2023-04-20T03:07:43.638Z,6.60
2023-04-20T03:10:13.891Z,7.53
2023-04-20T03:12:53.966Z,8.55
2023-04-20T03:15:31.012Z,9.45
2023-04-20T03:18:20.464Z,10.20
2023-04-20T03:20:48.597Z,9.35
2023-04-20T03:23:16.288Z,7.55
2023-04-20T03:25:44.693Z,5.38
2023-04-20T03:28:19.709Z,7.88
2023-04-20T03:30:47.861Z,5.95
2023-04-20T03:33:17.209Z,7.07
2023-04-20T03:35:46.675Z,7.70
2023-04-20T03:38:14.406Z,7.30
2023-04-20T03:40:42.497Z,7.47
2023-04-20T03:43:11.275Z,8.15
2023-04-20T03:45:39.003Z,6.07
2023-04-20T03:48:07.078Z,8.30
2023-04-20T03:50:35.468Z,9.02
2023-04-20T03:53:04.695Z,9.35
2023-04-20T03:55:33.042Z,7.90
2023-04-20T03:58:06.923Z,8.48
2023-04-20T04:00:45.650Z,9.43
2023-04-20T04:03:15.530Z,8.02
2023-04-20T04:05:43.346Z,8.25
2023-04-20T04:08:12.735Z,8.52
2023-04-20T04:10:40.911Z,8.75
2023-04-20T04:13:08.687Z,9.93
2023-04-20T04:15:36.390Z,9.65
2023-04-20T04:18:09.875Z,6.88
2023-04-20T04:20:40.074Z,10.10
2023-04-20T04:23:08.020Z,9.52
2023-04-20T04:25:48.518Z,9.50
2023-04-20T04:28:17.884Z,10.45
2023-04-20T04:31:07.304Z,13.65
2023-04-20T04:33:36.254Z,8.27
2023-04-20T04:36:07.465Z,6.95
2023-04-20T04:38:36.036Z,7.90
2023-04-20T04:41:05.541Z,9.80
2023-04-20T04:43:34.259Z,8.77
2023-04-20T04:46:12.609Z,8.80
2023-04-20T04:48:42.332Z,8.85
2023-04-20T04:51:11.691Z,11.95
2023-04-20T04:53:39.441Z,9.48
2023-04-20T04:56:09.019Z,8.35
2023-04-20T04:58:37.195Z,9.85
2023-04-20T05:01:04.986Z,9.95
2023-04-20T05:03:33.048Z,9.02
2023-04-20T05:06:00.943Z,7.70
2023-04-20T05:08:28.625Z,9.63
2023-04-20T05:10:56.227Z,8.90
2023-04-20T05:13:25.267Z,16.23
2023-04-20T05:15:53.087Z,9.05
2023-04-20T05:18:21.116Z,9.35
2023-04-20T05:20:48.913Z,9.75
2023-04-20T05:23:16.956Z,7.30
2023-04-20T05:25:45.357Z,8.35
2023-04-20T05:28:13.281Z,7.95
2023-04-20T05:30:43.083Z,11.02
2023-04-20T05:33:10.960Z,8.73
2023-04-20T05:35:40.431Z,8.10
2023-04-20T05:38:08.472Z,10.05
2023-04-20T05:40:36.686Z,10.63
2023-04-20T05:43:05.260Z,11.65
2023-04-20T05:45:34.768Z,12.45
2023-04-20T05:48:04.505Z,8.02
2023-04-20T05:50:32.485Z,10.88
2023-04-20T05:53:00.458Z,8.77
2023-04-20T05:55:28.158Z,13.27
2023-04-20T05:57:56.161Z,9.85
2023-04-20T06:00:25.919Z,9.10
2023-04-20T06:02:55.184Z,8.82
2023-04-20T06:05:26.476Z,11.95
2023-04-20T06:07:55.410Z,10.65
2023-04-20T06:10:24.112Z,14.88
2023-04-20T06:12:55.600Z,13.38
2023-04-20T06:15:23.365Z,10.00
2023-04-20T06:17:51.060Z,11.23
2023-04-20T06:20:20.173Z,8.10
2023-04-20T06:22:49.752Z,10.95
2023-04-20T06:25:17.875Z,11.00
2023-04-20T06:27:45.619Z,10.18
2023-04-20T06:30:14.736Z,8.77
2023-04-20T06:32:42.542Z,11.32
2023-04-20T06:35:10.640Z,10.48
2023-04-20T06:37:39.035Z,11.30
2023-04-20T06:40:09.516Z,9.82
2023-04-20T06:42:37.541Z,9.77
2023-04-20T06:45:07.201Z,11.40
2023-04-20T06:47:36.969Z,11.93
2023-04-20T06:50:10.034Z,13.13
2023-04-20T06:52:39.435Z,10.85
2023-04-20T06:55:09.731Z,12.20
2023-04-20T06:57:38.589Z,13.57
2023-04-20T07:00:09.846Z,10.90
2023-04-20T07:02:47.842Z,13.13
2023-04-20T07:05:16.670Z,9.25
2023-04-20T07:07:46.047Z,11.60
2023-04-20T07:10:16.720Z,12.43
2023-04-20T07:12:45.836Z,10.48
2023-04-20T07:15:14.598Z,9.02
2023-04-20T07:17:43.653Z,10.68
2023-04-20T07:20:15.445Z,11.18
2023-04-20T07:22:43.790Z,13.18
2023-04-20T07:25:11.932Z,8.38
2023-04-20T07:27:42.537Z,8.35
2023-04-20T07:30:12.102Z,10.40
2023-04-20T07:32:41.343Z,9.95
2023-04-20T07:35:11.346Z,8.52
2023-04-20T07:37:39.132Z,12.45
2023-04-20T07:40:08.170Z,9.63
2023-04-20T07:42:37.384Z,9.00
2023-04-20T07:45:08.436Z,10.43
2023-04-20T07:47:37.384Z,9.82
2023-04-20T07:50:06.339Z,8.68
2023-04-20T07:52:34.243Z,9.68
2023-04-20T07:55:03.453Z,9.68
2023-04-20T07:57:32.094Z,9.52
2023-04-20T08:00:00.470Z,8.38
2023-04-20T08:02:29.772Z,9.02
2023-04-20T08:04:58.564Z,9.18
2023-04-20T08:07:26.354Z,9.57
2023-04-20T08:09:54.208Z,9.65
2023-04-20T08:12:21.932Z,8.52
2023-04-20T08:14:49.720Z,7.85
2023-04-20T08:17:17.760Z,7.15
2023-04-20T08:19:48.092Z,6.70
2023-04-20T08:22:15.893Z,8.77
2023-04-20T08:24:44.088Z,9.07
2023-04-20T08:27:11.822Z,11.63
2023-04-20T08:29:40.139Z,14.27
2023-04-20T08:32:09.680Z,9.27
2023-04-20T08:34:37.919Z,11.38
2023-04-20T08:37:07.472Z,10.70
2023-04-20T08:39:35.363Z,10.57
2023-04-20T08:42:03.540Z,13.15
2023-04-20T08:44:31.488Z,9.68
2023-04-20T08:47:00.810Z,11.73
2023-04-20T08:49:29.668Z,11.13
2023-04-20T08:51:58.686Z,10.40
2023-04-20T08:54:28.372Z,7.72
2023-04-20T08:56:56.764Z,11.35
2023-04-20T08:59:24.822Z,10.65
2023-04-20T09:01:52.804Z,10.73
2023-04-20T09:04:22.931Z,9.85
2023-04-20T09:06:52.389Z,11.63
2023-04-20T09:09:20.888Z,8.20
2023-04-20T09:12:02.496Z,7.97
2023-04-20T09:14:30.821Z,10.70
2023-04-20T09:17:02.065Z,8.38
2023-04-20T09:19:30.755Z,7.18
2023-04-20T09:22:03.772Z,8.15
2023-04-20T09:24:32.983Z,9.25
2023-04-20T09:27:03.732Z,7.20
2023-04-20T09:29:32.170Z,10.48
2023-04-20T09:32:00.124Z,8.63
2023-04-20T09:34:28.363Z,11.20
2023-04-20T09:36:58.015Z,6.90
2023-04-20T09:39:27.144Z,7.47
2023-04-20T09:42:01.679Z,10.60
2023-04-20T09:44:30.967Z,12.07
2023-04-20T09:47:00.994Z,8.23
2023-04-20T09:49:30.340Z,8.02
2023-04-20T09:52:01.722Z,10.32
2023-04-20T09:54:30.835Z,7.65
2023-04-20T09:57:01.702Z,8.25
2023-04-20T09:59:34.471Z,8.18
2023-04-20T10:02:02.856Z,9.45
2023-04-20T10:04:31.285Z,8.05
2023-04-20T10:07:03.922Z,10.85
2023-04-20T10:09:33.313Z,11.85
2023-04-20T10:12:08.774Z,9.77
2023-04-20T10:14:38.539Z,8.57
2023-04-20T10:17:09.387Z,9.55
2023-04-20T10:19:39.345Z,7.95
2023-04-20T10:22:08.172Z,7.88
2023-04-20T10:24:38.093Z,10.32
2023-04-20T10:27:16.741Z,9.98
2023-04-20T10:29:46.001Z,9.15
2023-04-20T10:32:23.406Z,9.15
2023-04-20T10:35:02.263Z,8.98
2023-04-20T10:37:30.622Z,7.60
2023-04-20T10:39:58.948Z,8.85
2023-04-20T10:42:29.409Z,9.05
2023-04-20T10:44:58.536Z,7.10
2023-04-20T10:47:30.945Z,6.93
2023-04-20T10:50:07.919Z,8.57
2023-04-20T10:52:36.626Z,8.48
2023-04-20T10:55:05.081Z,7.57
2023-04-20T10:57:32.774Z,7.07
2023-04-20T11:00:16.411Z,8.30
2023-04-20T11:02:49.099Z,10.65
2023-04-20T11:05:18.038Z,8.73
2023-04-20T11:07:54.842Z,12.57
2023-04-20T11:10:25.556Z,12.55
2023-04-20T11:12:54.268Z,9.13
2023-04-20T11:15:34.260Z,10.50
2023-04-20T11:18:08.616Z,10.43
2023-04-20T11:20:37.282Z,9.73
2023-04-20T11:23:06.169Z,11.35
2023-04-20T11:25:34.211Z,10.00
2023-04-20T11:28:08.467Z,10.05
2023-04-20T11:30:41.594Z,9.82
2023-04-20T11:33:10.177Z,9.05
2023-04-20T11:35:38.831Z,10.60
2023-04-20T11:38:07.138Z,13.82
2023-04-20T11:40:35.063Z,10.05
2023-04-20T11:43:04.614Z,8.88
2023-04-20T11:45:36.275Z,8.48
2023-04-20T11:48:06.883Z,8.85
2023-04-20T11:50:34.795Z,9.48
2023-04-20T11:53:03.148Z,8.60
2023-04-20T11:55:31.372Z,11.68
2023-04-20T11:58:00.001Z,9.77
2023-04-20T12:00:28.235Z,8.15
2023-04-20T12:02:56.364Z,8.10
2023-04-20T12:05:25.939Z,8.75
2023-04-20T12:07:53.703Z,8.77
2023-04-20T12:10:21.673Z,8.10
2023-04-20T12:12:50.058Z,8.35
2023-04-20T12:15:17.947Z,7.15
2023-04-20T12:17:46.213Z,6.93
2023-04-20T12:20:15.068Z,9.30
2023-04-20T12:22:44.551Z,6.80
2023-04-20T12:25:12.620Z,7.78
2023-04-20T12:27:42.942Z,9.82
2023-04-20T12:30:13.527Z,9.45
2023-04-20T12:32:42.179Z,8.00
2023-04-20T12:35:10.235Z,8.85
2023-04-20T12:37:38.282Z,8.38
2023-04-20T12:40:10.194Z,9.18
2023-04-20T12:42:38.320Z,9.10
2023-04-20T12:45:07.974Z,9.70
2023-04-20T12:47:36.113Z,9.23
2023-04-20T12:50:07.273Z,8.90
2023-04-20T12:52:35.624Z,8.00
2023-04-20T12:55:04.545Z,8.32
2023-04-20T12:57:34.238Z,7.70
2023-04-20T13:00:03.207Z,7.47
2023-04-20T13:02:32.271Z,8.63
2023-04-20T13:05:00.499Z,8.13
2023-04-20T13:07:28.990Z,6.10
2023-04-20T13:09:56.910Z,6.80
2023-04-20T13:12:25.228Z,4.78
2023-04-20T13:14:55.127Z,5.70
2023-04-20T13:17:23.094Z,6.50
2023-04-20T13:19:51.972Z,5.47
2023-04-20T13:22:19.844Z,5.88
2023-04-20T13:24:47.960Z,5.97
2023-04-20T13:27:17.240Z,7.07
2023-04-20T13:29:45.104Z,6.00
2023-04-20T13:32:14.604Z,6.32
2023-04-20T13:34:42.768Z,5.68
2023-04-20T13:37:11.973Z,6.05
2023-04-20T13:39:41.145Z,5.97
2023-04-20T13:42:09.569Z,6.25
2023-04-20T13:44:37.837Z,5.22
2023-04-20T13:47:06.531Z,7.25
2023-04-20T13:49:35.634Z,8.48
2023-04-20T13:52:04.650Z,7.70
2023-04-20T13:54:32.447Z,9.45
2023-04-20T13:57:01.444Z,6.90
2023-04-20T13:59:30.648Z,10.13
2023-04-20T14:01:59.710Z,7.82
2023-04-20T14:04:28.799Z,8.85
2023-04-20T14:06:59.499Z,8.60
2023-04-20T14:09:28.818Z,6.85
2023-04-20T14:11:57.331Z,7.18
2023-04-20T14:14:26.052Z,5.50
2023-04-20T14:16:54.261Z,6.68
2023-04-20T14:19:22.108Z,5.65
2023-04-20T14:21:51.844Z,6.70
2023-04-20T14:24:21.208Z,5.53
2023-04-20T14:26:49.539Z,6.60
2023-04-20T14:29:18.226Z,6.22
2023-04-20T14:31:46.307Z,7.57
2023-04-20T14:34:14.631Z,7.32
2023-04-20T14:36:42.616Z,6.25
2023-04-20T14:39:11.368Z,6.63
2023-04-20T14:41:40.653Z,6.05
2023-04-20T14:44:08.692Z,9.05
2023-04-20T14:46:37.175Z,6.35
2023-04-20T14:49:05.700Z,7.88
2023-04-20T14:51:33.516Z,6.70
2023-04-20T14:54:01.364Z,6.72
2023-04-20T14:56:29.700Z,7.15
2023-04-20T14:58:59.690Z,9.25
2023-04-20T15:01:29.270Z,6.78
2023-04-20T15:03:58.271Z,8.18
2023-04-20T15:06:27.068Z,8.00
2023-04-20T15:08:55.600Z,8.02
2023-04-20T15:11:24.560Z,7.57
2023-04-20T15:13:52.966Z,6.60
2023-04-20T15:16:23.032Z,5.88
2023-04-20T15:18:53.094Z,7.25
2023-04-20T15:21:23.124Z,8.73
2023-04-20T15:23:51.641Z,7.43
2023-04-20T15:26:19.870Z,6.60
2023-04-20T15:28:49.431Z,6.75
2023-04-20T15:31:18.668Z,6.38
2023-04-20T15:33:49.003Z,6.75
2023-04-20T15:36:19.381Z,8.18
2023-04-20T15:38:48.678Z,6.78
2023-04-20T15:41:17.271Z,8.57
2023-04-20T15:43:45.132Z,7.30
2023-04-20T15:46:12.907Z,6.78
2023-04-20T15:48:41.210Z,9.13
2023-04-20T15:51:10.429Z,7.13
2023-04-20T15:53:38.807Z,7.00
2023-04-20T15:56:07.602Z,8.73
2023-04-20T15:58:35.561Z,7.40
2023-04-20T16:01:13.847Z,7.25
2023-04-20T16:03:43.873Z,7.20
2023-04-20T16:07:12.385Z,7.47
2023-04-20T16:09:41.329Z,7.50
2023-04-20T16:12:10.473Z,7.35
2023-04-20T16:14:38.875Z,9.90
2023-04-20T16:17:07.863Z,7.82
2023-04-20T16:19:35.870Z,7.45
2023-04-20T16:22:04.451Z,7.78
2023-04-20T16:24:34.335Z,7.70
2023-04-20T16:27:02.877Z,9.25
2023-04-20T16:29:30.833Z,8.48
2023-04-20T16:31:58.584Z,8.90
2023-04-20T16:34:26.774Z,9.38
2023-04-20T16:36:54.779Z,8.68
2023-04-20T16:39:22.700Z,8.82
2023-04-20T16:41:51.799Z,8.63
2023-04-20T16:44:19.848Z,8.10
2023-04-20T16:46:49.535Z,8.57
2023-04-20T16:49:17.596Z,11.43
2023-04-20T16:51:45.514Z,8.13
2023-04-20T16:54:13.425Z,7.88
2023-04-20T16:56:42.152Z,8.18
2023-04-20T16:59:11.726Z,7.82
2023-04-20T17:01:39.530Z,8.10
2023-04-20T17:04:07.443Z,8.32
2023-04-20T17:06:35.553Z,8.45
2023-04-20T17:09:06.810Z,10.68
2023-04-20T17:11:36.442Z,9.00
2023-04-20T17:14:04.733Z,7.70
2023-04-20T17:16:35.390Z,7.82
2023-04-20T17:19:04.220Z,8.60
2023-04-20T17:21:32.205Z,9.00
2023-04-20T17:24:00.353Z,8.30
2023-04-20T17:26:28.530Z,8.48
2023-04-20T17:28:56.272Z,8.50
2023-04-20T17:31:24.646Z,8.88
2023-04-20T17:33:55.688Z,10.10
2023-04-20T17:36:23.735Z,11.25
2023-04-20T17:38:51.660Z,8.57
2023-04-20T17:41:19.418Z,9.73
2023-04-20T17:43:47.478Z,9.50
2023-04-20T17:46:15.363Z,9.98
2023-04-20T17:48:43.453Z,10.43
2023-04-20T17:51:14.932Z,9.50
2023-04-20T17:53:43.673Z,8.18
2023-04-20T17:56:11.912Z,9.60
2023-04-20T17:58:40.084Z,8.55
2023-04-20T18:01:08.135Z,9.82
2023-04-20T18:03:36.612Z,10.18
2023-04-20T18:06:05.117Z,9.75
2023-04-20T18:08:35.857Z,9.80
2023-04-20T18:11:05.559Z,8.95
2023-04-20T18:13:33.702Z,10.98
2023-04-20T18:16:06.911Z,7.45
2023-04-20T18:18:35.981Z,8.48
2023-04-20T18:21:04.934Z,8.00
2023-04-20T18:23:34.959Z,8.35
2023-04-20T18:26:04.413Z,8.32
2023-04-20T18:28:32.629Z,8.57
2023-04-20T18:31:03.006Z,8.80
2023-04-20T18:33:31.735Z,9.10
2023-04-20T18:35:59.931Z,8.43
2023-04-20T18:38:27.788Z,9.07
2023-04-20T18:40:57.014Z,9.82
2023-04-20T18:43:25.079Z,8.80
2023-04-20T18:45:53.395Z,9.50
2023-04-20T18:48:21.553Z,10.18
2023-04-20T18:50:49.599Z,9.85
2023-04-20T18:53:18.253Z,9.35
2023-04-20T18:55:46.654Z,10.90
2023-04-20T18:58:16.178Z,10.65
2023-04-20T19:00:44.832Z,9.98
2023-04-20T19:03:13.809Z,11.20
2023-04-20T19:05:42.739Z,10.90
2023-04-20T19:08:10.822Z,11.23
2023-04-20T19:10:38.933Z,11.15
2023-04-20T19:13:07.561Z,12.23
2023-04-20T19:15:38.128Z,11.65
2023-04-20T19:18:08.895Z,11.98
2023-04-20T19:20:37.778Z,11.50
2023-04-20T19:23:05.639Z,12.68
2023-04-20T19:25:33.826Z,12.20
2023-04-20T19:28:01.653Z,11.93
2023-04-20T19:30:29.425Z,11.68
2023-04-20T19:33:02.282Z,11.95
2023-04-20T19:35:30.444Z,11.57
2023-04-20T19:37:58.514Z,12.70
2023-04-20T19:40:26.942Z,12.38
2023-04-20T19:42:54.637Z,11.32
2023-04-20T19:45:23.571Z,11.75
2023-04-20T19:47:51.775Z,11.23
2023-04-20T19:50:21.195Z,12.65
2023-04-20T19:52:49.418Z,13.18
2023-04-20T19:55:17.497Z,12.23
2023-04-20T19:57:45.209Z,13.20
2023-04-20T20:00:13.594Z,12.68
2023-04-20T20:02:43.287Z,13.32
2023-04-20T20:05:11.407Z,13.00
2023-04-20T20:07:40.966Z,14.70
2023-04-20T20:10:09.612Z,15.85
2023-04-20T20:12:37.998Z,17.20
2023-04-20T20:15:06.208Z,14.48
2023-04-20T20:17:34.219Z,14.77
2023-04-20T20:20:02.328Z,12.25
2023-04-20T20:22:30.159Z,12.52
2023-04-20T20:25:01.227Z,12.15
2023-04-20T20:27:29.262Z,12.27
2023-04-20T20:29:57.644Z,12.48
2023-04-20T20:32:25.865Z,12.95
2023-04-20T20:34:53.708Z,12.68
2023-04-20T20:37:22.029Z,12.70
2023-04-20T20:39:49.926Z,12.90
2023-04-20T20:42:19.194Z,12.88
2023-04-20T20:44:47.398Z,14.73
2023-04-20T20:47:15.225Z,16.80
2023-04-20T20:49:43.363Z,15.68
2023-04-20T20:52:11.080Z,14.88
2023-04-20T20:54:38.926Z,17.35
2023-04-20T20:57:06.618Z,15.50
2023-04-20T20:59:36.028Z,14.82
2023-04-20T21:02:04.331Z,15.07
2023-04-20T21:04:32.279Z,13.50
2023-04-20T21:07:00.033Z,11.90
2023-04-20T21:09:27.765Z,13.25
2023-04-20T21:11:56.484Z,13.63
2023-04-20T21:14:24.985Z,12.85
2023-04-20T21:16:55.268Z,13.45
2023-04-20T21:19:23.150Z,15.18
2023-04-20T21:21:50.847Z,13.32
2023-04-20T21:24:19.111Z,13.10
2023-04-20T21:26:47.383Z,14.13
2023-04-20T21:29:15.559Z,14.65
2023-04-20T21:31:44.074Z,16.25
2023-04-20T21:34:13.128Z,15.02
2023-04-20T21:36:40.815Z,17.05
2023-04-20T21:39:08.513Z,17.88
2023-04-20T21:41:38.683Z,18.13
2023-04-20T21:44:06.482Z,17.20
2023-04-20T21:46:34.387Z,18.67
2023-04-20T21:49:02.441Z,18.45
2023-04-20T21:51:32.083Z,17.33
2023-04-20T21:54:00.299Z,17.50
2023-04-20T21:56:28.356Z,16.80
2023-04-20T21:58:56.108Z,17.05
2023-04-20T22:01:24.472Z,17.70
2023-04-20T22:03:52.516Z,18.13
2023-04-20T22:06:20.466Z,18.10
2023-04-20T22:08:49.696Z,18.15
2023-04-20T22:11:17.712Z,19.45
2023-04-20T22:13:46.024Z,18.40
2023-04-20T22:16:14.126Z,19.13
2023-04-20T22:18:42.346Z,19.02
2023-04-20T22:21:10.090Z,21.00
2023-04-20T22:23:37.757Z,20.48
2023-04-20T22:26:06.909Z,20.83
2023-04-20T22:28:34.797Z,21.00
2023-04-20T22:31:03.233Z,22.25
2023-04-20T22:33:32.271Z,23.10
2023-04-20T22:36:00.617Z,20.85
2023-04-20T22:38:28.905Z,22.48
2023-04-20T22:40:56.886Z,22.52
2023-04-20T22:43:26.961Z,23.10
2023-04-20T22:45:54.884Z,26.55
2023-04-20T22:48:22.841Z,25.77
2023-04-20T22:50:51.193Z,26.55
2023-04-20T22:53:19.028Z,24.52
2023-04-20T22:55:47.211Z,26.77
2023-04-20T22:58:14.973Z,24.05
2023-04-20T23:00:44.329Z,24.70
2023-04-20T23:03:12.499Z,25.45
2023-04-20T23:05:44.652Z,26.98
2023-04-20T23:08:13.508Z,28.65
2023-04-20T23:10:41.921Z,27.25
2023-04-20T23:13:16.754Z,26.95
2023-04-20T23:15:45.860Z,27.40
2023-04-20T23:18:13.542Z,29.10
2023-04-20T23:20:41.299Z,29.35
2023-04-20T23:23:10.638Z,27.73
2023-04-20T23:25:39.063Z,29.35
2023-04-20T23:28:07.640Z,30.23
2023-04-20T23:30:35.515Z,28.65
2023-04-20T23:33:04.866Z,29.70
2023-04-20T23:35:32.782Z,29.17
2023-04-20T23:38:01.081Z,30.73
2023-04-20T23:40:29.073Z,31.30
2023-04-20T23:42:56.783Z,31.85
2023-04-20T23:45:24.873Z,34.40
2023-04-20T23:47:53.007Z,33.47
2023-04-20T23:50:22.415Z,35.22
2023-04-20T23:52:50.303Z,31.63
2023-04-20T23:55:18.484Z,34.15
2023-04-20T23:57:47.818Z,33.47
